createdAt,value
2023-05-10T00:00:25.967Z,14.76
2023-05-10T00:02:58.980Z,14.66
2023-05-10T00:05:29.546Z,14.53
2023-05-10T00:08:00.616Z,14.68
2023-05-10T00:10:31.105Z,15.05
2023-05-10T00:13:02.311Z,15.22
2023-05-10T00:15:32.813Z,15.21
2023-05-10T00:18:03.685Z,15.12
2023-05-10T00:20:34.686Z,15.02
2023-05-10T00:23:05.518Z,14.82
2023-05-10T00:25:35.908Z,14.79
2023-05-10T00:28:06.822Z,14.65
2023-05-10T00:30:36.951Z,14.75
2023-05-10T00:33:07.525Z,14.89
2023-05-10T00:35:38.174Z,14.88
2023-05-10T00:38:08.918Z,14.78
2023-05-10T00:40:39.760Z,14.63
2023-05-10T00:43:16.265Z,14.55
2023-05-10T00:45:46.976Z,14.55
2023-05-10T00:48:17.700Z,14.48
2023-05-10T00:50:48.314Z,14.47
2023-05-10T00:53:19.997Z,14.35
2023-05-10T00:55:50.100Z,14.41
2023-05-10T00:58:20.912Z,14.45
2023-05-10T01:00:51.905Z,14.57
2023-05-10T01:03:22.655Z,14.74
2023-05-10T01:05:52.736Z,14.76
2023-05-10T01:08:22.891Z,14.74
2023-05-10T01:10:54.664Z,14.74
2023-05-10T01:13:37.324Z,14.70
2023-05-10T01:16:09.069Z,14.50
2023-05-10T01:18:41.819Z,14.57
2023-05-10T01:21:35.766Z,14.51
2023-05-10T01:24:17.605Z,14.59
2023-05-10T01:27:21.716Z,14.19
2023-05-10T01:30:21.990Z,13.96
2023-05-10T01:32:55.444Z,14.11
2023-05-10T01:35:44.251Z,14.15
2023-05-10T01:38:29.753Z,14.10
2023-05-10T01:41:17.580Z,14.07
2023-05-10T01:44:05.834Z,13.98
2023-05-10T01:46:42.024Z,14.00
2023-05-10T01:49:22.163Z,14.23
2023-05-10T01:51:56.932Z,14.40
2023-05-10T01:54:29.687Z,14.29
2023-05-10T01:57:05.857Z,14.20
2023-05-10T01:59:42.958Z,14.09
2023-05-10T02:02:14.662Z,14.03
2023-05-10T02:04:46.584Z,14.05
2023-05-10T02:07:18.203Z,14.06
2023-05-10T02:09:50.472Z,14.10
2023-05-10T02:12:21.864Z,14.11
2023-05-10T02:14:55.063Z,14.22
2023-05-10T02:17:28.630Z,14.23
2023-05-10T02:20:01.251Z,14.24
2023-05-10T02:22:31.866Z,14.17
2023-05-10T02:25:03.495Z,14.23
2023-05-10T02:27:34.109Z,14.24
2023-05-10T02:30:04.740Z,14.21
2023-05-10T02:32:35.501Z,14.20
2023-05-10T02:35:07.331Z,14.25
2023-05-10T02:37:39.838Z,14.29
2023-05-10T02:40:11.479Z,14.30
2023-05-10T02:42:44.910Z,14.19
2023-05-10T02:45:17.844Z,13.98
2023-05-10T02:47:47.953Z,13.88
2023-05-10T02:50:18.929Z,13.77
2023-05-10T02:52:52.289Z,13.86
2023-05-10T02:55:41.365Z,13.81
2023-05-10T02:58:12.235Z,13.53
2023-05-10T03:00:42.688Z,13.31
2023-05-10T03:03:12.610Z,13.14
2023-05-10T03:05:42.993Z,13.07
2023-05-10T03:08:13.318Z,13.03
2023-05-10T03:10:53.803Z,13.07
2023-05-10T03:13:56.980Z,13.04
2023-05-10T03:16:32.325Z,13.03
2023-05-10T03:19:12.504Z,13.07
2023-05-10T03:21:46.261Z,13.06
2023-05-10T03:24:17.699Z,13.09
2023-05-10T03:26:49.882Z,13.10
2023-05-10T03:29:22.756Z,13.14
2023-05-10T03:31:53.517Z,13.13
2023-05-10T03:34:29.454Z,13.11
2023-05-10T03:37:00.331Z,13.10
2023-05-10T03:39:33.644Z,13.11
2023-05-10T03:42:05.342Z,13.35
2023-05-10T03:44:35.470Z,13.39
2023-05-10T03:47:05.956Z,13.53
2023-05-10T03:49:36.244Z,13.58
2023-05-10T03:52:07.553Z,13.63
2023-05-10T03:54:38.116Z,13.65
2023-05-10T03:57:08.851Z,13.65
2023-05-10T03:59:38.875Z,13.82
2023-05-10T04:02:09.268Z,14.14
2023-05-10T04:04:39.527Z,14.14
2023-05-10T04:07:09.983Z,14.20
2023-05-10T04:09:39.899Z,14.45
2023-05-10T04:12:11.083Z,14.50
2023-05-10T04:14:41.075Z,14.44
2023-05-10T04:17:10.918Z,14.54
2023-05-10T04:19:41.366Z,14.67
2023-05-10T04:22:11.385Z,14.69
2023-05-10T04:24:41.815Z,14.77
2023-05-10T04:27:12.009Z,14.71
2023-05-10T04:29:42.302Z,14.83
2023-05-10T04:32:12.301Z,14.80
2023-05-10T04:34:42.726Z,14.87
2023-05-10T04:37:12.664Z,14.82
2023-05-10T04:39:43.129Z,14.82
2023-05-10T04:42:13.608Z,14.77
2023-05-10T04:44:44.723Z,14.49
2023-05-10T04:47:15.345Z,14.34
2023-05-10T04:49:45.778Z,14.28
2023-05-10T04:52:16.524Z,14.14
2023-05-10T04:54:46.876Z,13.94
2023-05-10T04:57:16.856Z,13.92
2023-05-10T04:59:49.024Z,13.70
2023-05-10T05:02:20.357Z,13.62
2023-05-10T05:04:50.162Z,13.56
2023-05-10T05:07:20.633Z,13.61
2023-05-10T05:09:50.545Z,13.59
2023-05-10T05:12:20.930Z,13.59
2023-05-10T05:14:50.821Z,13.71
2023-05-10T05:17:21.168Z,13.68
2023-05-10T05:19:51.093Z,13.70
2023-05-10T05:22:21.793Z,13.85
2023-05-10T05:24:51.754Z,13.94
2023-05-10T05:27:24.517Z,14.01
2023-05-10T05:29:58.426Z,14.13
2023-05-10T05:32:28.906Z,14.19
2023-05-10T05:34:58.938Z,14.20
2023-05-10T05:37:29.322Z,14.09
2023-05-10T05:39:59.207Z,13.72
2023-05-10T05:42:29.995Z,13.74
2023-05-10T05:44:59.967Z,13.74
2023-05-10T05:47:30.440Z,13.64
2023-05-10T05:50:00.248Z,13.51
2023-05-10T05:52:30.802Z,13.29
2023-05-10T05:55:00.745Z,13.29
2023-05-10T05:57:32.114Z,13.43
2023-05-10T06:00:02.659Z,13.54
2023-05-10T06:02:42.241Z,13.58
2023-05-10T06:05:12.326Z,13.57
2023-05-10T06:07:45.821Z,13.51
2023-05-10T06:10:15.697Z,13.43
2023-05-10T06:12:46.035Z,13.49
2023-05-10T06:15:16.292Z,13.55
2023-05-10T06:17:46.881Z,13.09
2023-05-10T06:20:16.997Z,13.08
2023-05-10T06:22:47.590Z,13.21
2023-05-10T06:25:20.088Z,13.02
2023-05-10T06:27:53.480Z,12.64
2023-05-10T06:30:25.205Z,12.72
2023-05-10T06:32:55.856Z,12.35
2023-05-10T06:35:26.301Z,12.29
2023-05-10T06:37:57.578Z,12.29
2023-05-10T06:40:27.506Z,12.40
2023-05-10T06:42:57.256Z,12.54
2023-05-10T06:45:27.624Z,12.68
2023-05-10T06:47:57.443Z,12.75
2023-05-10T06:50:27.911Z,12.86
2023-05-10T06:52:58.026Z,12.88
2023-05-10T06:55:28.759Z,13.02
2023-05-10T06:57:58.717Z,13.07
2023-05-10T07:00:29.207Z,13.10
2023-05-10T07:02:59.214Z,13.17
2023-05-10T07:05:30.052Z,13.16
2023-05-10T07:08:00.067Z,13.43
2023-05-10T07:10:30.570Z,13.29
2023-05-10T07:13:00.711Z,13.43
2023-05-10T07:15:31.176Z,13.34
2023-05-10T07:18:01.243Z,13.54
2023-05-10T07:20:31.855Z,13.46
2023-05-10T07:23:01.960Z,13.57
2023-05-10T07:25:32.413Z,13.52
2023-05-10T07:28:02.348Z,13.57
2023-05-10T07:30:32.856Z,13.53
2023-05-10T07:33:02.919Z,13.59
2023-05-10T07:35:33.365Z,13.51
2023-05-10T07:38:03.396Z,13.49
2023-05-10T07:40:34.302Z,13.45
2023-05-10T07:43:04.440Z,13.41
2023-05-10T07:45:35.495Z,13.50
2023-05-10T07:48:05.632Z,13.56
2023-05-10T07:50:35.995Z,13.62
2023-05-10T07:53:05.934Z,13.62
2023-05-10T07:55:36.293Z,13.68
2023-05-10T07:58:06.388Z,13.64
2023-05-10T08:00:36.915Z,13.64
2023-05-10T08:03:06.976Z,13.62
2023-05-10T08:05:37.661Z,13.59
2023-05-10T08:08:07.678Z,13.62
2023-05-10T08:10:37.994Z,13.61
2023-05-10T08:13:08.233Z,13.66
2023-05-10T08:15:38.567Z,13.65
2023-05-10T08:18:08.586Z,13.63
2023-05-10T08:20:38.935Z,13.63
2023-05-10T08:23:08.911Z,13.70
2023-05-10T08:25:39.276Z,13.78
2023-05-10T08:28:10.040Z,13.71
2023-05-10T08:30:42.234Z,13.74
2023-05-10T08:33:12.293Z,13.72
2023-05-10T08:35:46.281Z,13.70
2023-05-10T08:38:16.268Z,13.60
2023-05-10T08:40:47.839Z,13.62
2023-05-10T08:43:17.951Z,13.56
2023-05-10T08:45:49.013Z,13.30
2023-05-10T08:48:20.135Z,13.23
2023-05-10T08:50:52.269Z,13.17
2023-05-10T08:53:23.628Z,13.06
2023-05-10T08:55:54.271Z,12.96
2023-05-10T08:58:25.341Z,12.66
2023-05-10T09:00:56.708Z,12.43
2023-05-10T09:03:26.690Z,12.40
2023-05-10T09:06:00.281Z,12.31
2023-05-10T09:08:30.422Z,12.39
2023-05-10T09:11:02.333Z,12.46
2023-05-10T09:13:33.082Z,12.41
2023-05-10T09:16:10.183Z,12.53
2023-05-10T09:18:51.447Z,12.46
2023-05-10T09:21:22.788Z,12.62
2023-05-10T09:23:53.128Z,12.64
2023-05-10T09:26:26.953Z,12.62
2023-05-10T09:28:59.246Z,12.70
2023-05-10T09:31:49.998Z,12.83
2023-05-10T09:34:34.182Z,12.91
2023-05-10T09:37:08.283Z,12.96
2023-05-10T09:39:39.895Z,13.08
2023-05-10T09:42:13.366Z,13.12
2023-05-10T09:44:45.531Z,13.16
2023-05-10T09:47:21.065Z,13.16
2023-05-10T09:49:55.098Z,13.16
2023-05-10T09:52:25.506Z,13.26
2023-05-10T09:54:56.794Z,13.37
2023-05-10T09:57:28.172Z,13.32
2023-05-10T09:59:59.661Z,13.33
2023-05-10T10:02:33.432Z,13.35
2023-05-10T10:05:06.734Z,13.36
2023-05-10T10:07:37.948Z,13.41
2023-05-10T10:10:13.572Z,13.40
2023-05-10T10:12:44.483Z,13.45
2023-05-10T10:15:16.615Z,13.47
2023-05-10T10:17:48.079Z,13.51
2023-05-10T10:20:19.160Z,13.55
2023-05-10T10:22:50.602Z,13.52
2023-05-10T10:25:22.423Z,13.57
2023-05-10T10:27:55.948Z,13.60
2023-05-10T10:30:45.015Z,13.63
2023-05-10T10:33:44.856Z,13.85
2023-05-10T10:36:16.006Z,13.83
2023-05-10T10:38:49.085Z,14.22
2023-05-10T10:41:36.804Z,14.29
2023-05-10T10:44:28.918Z,14.33
2023-05-10T10:47:14.122Z,14.27
2023-05-10T10:49:44.467Z,14.25
2023-05-10T10:52:32.081Z,14.26
2023-05-10T10:55:07.453Z,14.44
2023-05-10T10:57:43.562Z,14.46
2023-05-10T11:00:42.090Z,14.50
2023-05-10T11:03:16.512Z,14.59
2023-05-10T11:05:47.213Z,14.56
2023-05-10T11:08:29.595Z,14.64
2023-05-10T11:11:03.052Z,14.83
2023-05-10T11:13:37.632Z,14.97
2023-05-10T11:16:29.045Z,14.96
2023-05-10T11:19:05.496Z,14.99
2023-05-10T11:21:46.696Z,15.07
2023-05-10T11:24:29.607Z,15.00
2023-05-10T11:27:00.296Z,14.95
2023-05-10T11:29:30.488Z,15.07
2023-05-10T11:32:01.811Z,15.23
2023-05-10T11:34:35.499Z,15.50
2023-05-10T11:37:05.848Z,15.75
2023-05-10T11:39:36.049Z,15.94
2023-05-10T11:42:06.769Z,16.07
2023-05-10T11:44:36.926Z,16.21
2023-05-10T11:47:08.237Z,16.37
2023-05-10T11:49:38.177Z,16.41
2023-05-10T11:52:13.484Z,16.53
2023-05-10T11:55:10.268Z,16.62
2023-05-10T11:57:40.726Z,16.28
2023-05-10T12:00:12.896Z,16.33
2023-05-10T12:02:46.182Z,16.35
2023-05-10T12:05:16.992Z,16.37
2023-05-10T12:07:47.024Z,16.55
2023-05-10T12:10:18.942Z,16.53
2023-05-10T12:12:50.312Z,16.67
2023-05-10T12:15:23.021Z,16.81
2023-05-10T12:17:54.003Z,17.25
2023-05-10T12:20:26.426Z,17.51
2023-05-10T12:23:00.321Z,17.65
2023-05-10T12:25:36.172Z,17.99
2023-05-10T12:28:07.969Z,18.97
2023-05-10T12:30:39.695Z,18.89
2023-05-10T12:33:18.642Z,19.12
2023-05-10T12:35:54.123Z,19.06
2023-05-10T12:38:40.346Z,19.29
2023-05-10T12:41:13.196Z,19.22
2023-05-10T12:43:43.677Z,19.58
2023-05-10T12:46:15.375Z,19.81
2023-05-10T12:48:47.485Z,19.95
2023-05-10T12:51:21.470Z,20.12
2023-05-10T12:53:51.594Z,20.41
2023-05-10T12:56:22.247Z,20.70
2023-05-10T12:58:53.040Z,20.92
2023-05-10T13:01:23.549Z,20.90
2023-05-10T13:03:53.545Z,21.10
2023-05-10T13:06:23.389Z,21.72
2023-05-10T13:08:53.925Z,22.78
2023-05-10T13:11:23.941Z,22.89
2023-05-10T13:13:54.502Z,22.71
2023-05-10T13:16:24.829Z,22.26
2023-05-10T13:18:55.302Z,21.95
2023-05-10T13:21:26.780Z,22.05
2023-05-10T13:23:57.658Z,21.95
2023-05-10T13:26:27.737Z,21.81
2023-05-10T13:28:58.146Z,21.54
2023-05-10T13:31:28.398Z,21.50
2023-05-10T13:33:58.711Z,21.36
2023-05-10T13:36:28.550Z,21.18
2023-05-10T13:38:58.894Z,21.19
2023-05-10T13:41:31.936Z,21.24
2023-05-10T13:44:03.008Z,21.41
2023-05-10T13:46:33.108Z,21.53
2023-05-10T13:49:04.068Z,21.65
2023-05-10T13:51:34.056Z,21.89
2023-05-10T13:54:07.187Z,21.97
2023-05-10T13:56:37.330Z,21.96
2023-05-10T13:59:07.711Z,21.65
2023-05-10T14:02:08.841Z,21.26
2023-05-10T14:04:39.238Z,21.44
2023-05-10T14:07:09.222Z,21.60
2023-05-10T14:09:39.559Z,22.29
2023-05-10T14:12:09.765Z,21.92
2023-05-10T14:14:40.236Z,21.62
2023-05-10T14:17:12.232Z,21.17
2023-05-10T14:19:42.924Z,21.15
2023-05-10T14:22:13.009Z,21.09
2023-05-10T14:24:42.824Z,20.71
2023-05-10T14:27:13.937Z,20.64
2023-05-10T14:29:44.143Z,20.71
2023-05-10T14:32:14.690Z,20.84
2023-05-10T14:34:44.725Z,21.22
2023-05-10T14:37:17.563Z,21.56
2023-05-10T14:39:47.474Z,21.84
2023-05-10T14:42:17.754Z,22.15
2023-05-10T14:44:47.479Z,22.24
2023-05-10T14:47:17.409Z,22.15
2023-05-10T14:49:48.019Z,22.45
2023-05-10T14:52:18.101Z,22.77
2023-05-10T14:54:48.377Z,23.59
2023-05-10T14:57:18.869Z,24.53
2023-05-10T14:59:48.694Z,24.50
2023-05-10T15:02:20.604Z,24.12
2023-05-10T15:04:51.161Z,25.36
2023-05-10T15:07:22.130Z,25.10
2023-05-10T15:09:54.000Z,26.15
2023-05-10T15:12:24.414Z,25.63
2023-05-10T15:14:54.383Z,26.08
2023-05-10T15:17:24.797Z,25.77
2023-05-10T15:19:54.715Z,25.85
2023-05-10T15:22:25.081Z,25.15
2023-05-10T15:24:55.006Z,24.24
2023-05-10T15:27:25.357Z,23.71
2023-05-10T15:29:55.739Z,23.67
2023-05-10T15:32:26.131Z,23.64
2023-05-10T15:34:56.080Z,24.41
2023-05-10T15:37:26.687Z,24.90
2023-05-10T15:40:03.340Z,24.48
2023-05-10T15:42:34.234Z,24.27
2023-05-10T15:45:04.148Z,24.49
2023-05-10T15:47:34.013Z,24.79
2023-05-10T15:50:04.738Z,24.80
2023-05-10T15:52:34.699Z,24.31
2023-05-10T15:55:05.312Z,23.86
2023-05-10T15:57:36.857Z,24.14
2023-05-10T16:00:08.393Z,23.84
2023-05-10T16:02:42.675Z,23.87
2023-05-10T16:05:13.215Z,24.72
2023-05-10T16:07:43.505Z,25.50
2023-05-10T16:10:14.033Z,26.85
2023-05-10T16:12:44.040Z,27.03
2023-05-10T16:15:14.632Z,27.11
2023-05-10T16:17:44.895Z,26.65
2023-05-10T16:20:15.424Z,26.36
2023-05-10T16:22:45.625Z,26.06
2023-05-10T16:25:16.127Z,26.83
2023-05-10T16:27:46.233Z,27.86
2023-05-10T16:30:16.693Z,27.46
2023-05-10T16:32:46.808Z,27.64
2023-05-10T16:35:17.475Z,27.96
2023-05-10T16:37:47.817Z,28.35
2023-05-10T16:40:18.975Z,29.29
2023-05-10T16:42:48.933Z,29.02
2023-05-10T16:45:19.452Z,28.70
2023-05-10T16:47:49.563Z,27.75
2023-05-10T16:50:20.021Z,27.93
2023-05-10T16:52:50.087Z,27.93
2023-05-10T16:55:20.691Z,27.97
2023-05-10T16:57:51.249Z,28.00
2023-05-10T17:00:22.062Z,27.96
2023-05-10T17:02:52.429Z,27.25
2023-05-10T17:05:24.035Z,27.34
2023-05-10T17:07:54.262Z,27.44
2023-05-10T17:10:24.811Z,27.42
2023-05-10T17:12:54.886Z,27.73
2023-05-10T17:15:25.306Z,26.87
2023-05-10T17:17:55.337Z,26.18
2023-05-10T17:20:25.789Z,26.08
2023-05-10T17:22:55.875Z,26.27
2023-05-10T17:25:26.272Z,26.59
2023-05-10T17:27:56.287Z,26.59
2023-05-10T17:30:27.410Z,26.50
2023-05-10T17:32:57.457Z,26.24
2023-05-10T17:35:27.396Z,26.46
2023-05-10T17:37:57.869Z,26.23
2023-05-10T17:40:27.854Z,26.19
2023-05-10T17:42:58.301Z,25.91
2023-05-10T17:45:28.263Z,26.11
2023-05-10T17:47:58.655Z,26.38
2023-05-10T17:50:28.712Z,26.05
2023-05-10T17:52:59.158Z,25.86
2023-05-10T17:55:31.192Z,25.72
2023-05-10T17:58:02.101Z,26.12
2023-05-10T18:00:32.094Z,25.92
2023-05-10T18:03:04.911Z,25.64
2023-05-10T18:05:43.949Z,25.93
2023-05-10T18:08:14.406Z,25.78
2023-05-10T18:10:44.365Z,26.13
2023-05-10T18:13:14.769Z,26.01
2023-05-10T18:15:44.957Z,25.82
2023-05-10T18:18:15.420Z,25.61
2023-05-10T18:20:47.311Z,25.47
2023-05-10T18:23:17.779Z,25.58
2023-05-10T18:25:47.809Z,26.23
2023-05-10T18:28:18.381Z,26.28
2023-05-10T18:30:48.317Z,26.47
2023-05-10T18:33:18.792Z,26.29
2023-05-10T18:35:48.813Z,25.90
2023-05-10T18:38:19.345Z,25.40
2023-05-10T18:40:49.381Z,25.33
2023-05-10T18:43:19.808Z,25.30
2023-05-10T18:45:49.819Z,25.44
2023-05-10T18:48:20.302Z,25.35
2023-05-10T18:50:50.195Z,25.28
2023-05-10T18:53:20.592Z,25.29
2023-05-10T18:55:58.959Z,25.21
2023-05-10T18:58:30.127Z,24.49
2023-05-10T19:01:00.043Z,23.78
2023-05-10T19:03:31.395Z,23.97
2023-05-10T19:06:01.504Z,24.34
2023-05-10T19:08:31.831Z,24.84
2023-05-10T19:11:01.817Z,24.50
2023-05-10T19:13:32.282Z,24.65
2023-05-10T19:16:06.563Z,24.81
2023-05-10T19:18:39.356Z,24.50
2023-05-10T19:21:11.518Z,24.22
2023-05-10T19:23:43.059Z,24.51
2023-05-10T19:26:13.529Z,24.43
2023-05-10T19:28:43.865Z,24.44
2023-05-10T19:31:13.673Z,24.35
2023-05-10T19:33:44.061Z,24.18
2023-05-10T19:36:14.299Z,23.80
2023-05-10T19:38:44.720Z,23.51
2023-05-10T19:41:14.515Z,23.62
2023-05-10T19:43:44.853Z,23.13
2023-05-10T19:46:16.627Z,22.88
2023-05-10T19:48:50.816Z,22.70
2023-05-10T19:51:20.934Z,22.34
2023-05-10T19:53:50.799Z,22.35
2023-05-10T19:56:21.314Z,22.21
2023-05-10T19:58:51.330Z,21.92
2023-05-10T20:01:22.020Z,21.83
2023-05-10T20:03:52.480Z,21.65
2023-05-10T20:06:22.990Z,21.54
2023-05-10T20:08:52.740Z,21.35
2023-05-10T20:11:23.192Z,21.11
2023-05-10T20:13:53.212Z,20.86
2023-05-10T20:16:25.911Z,20.55
2023-05-10T20:18:56.825Z,20.27
2023-05-10T20:21:27.891Z,20.10
2023-05-10T20:23:57.858Z,19.93
2023-05-10T20:26:28.273Z,19.69
2023-05-10T20:28:58.225Z,19.57
2023-05-10T20:31:28.602Z,19.40
2023-05-10T20:33:58.706Z,19.21
2023-05-10T20:36:29.874Z,19.07
2023-05-10T20:38:59.793Z,18.93
2023-05-10T20:41:30.260Z,18.76
2023-05-10T20:44:00.311Z,18.66
2023-05-10T20:46:31.507Z,18.54
2023-05-10T20:49:01.530Z,18.39
2023-05-10T20:51:34.112Z,18.28
2023-05-10T20:54:05.513Z,18.05
2023-05-10T20:56:36.135Z,17.82
2023-05-10T20:59:06.712Z,17.72
2023-05-10T21:01:37.108Z,17.53
2023-05-10T21:04:07.798Z,17.44
2023-05-10T21:06:38.752Z,17.27
2023-05-10T21:09:08.767Z,17.13
2023-05-10T21:11:42.174Z,17.05
2023-05-10T21:14:12.226Z,16.89
2023-05-10T21:16:42.714Z,16.76
2023-05-10T21:19:13.341Z,16.64
2023-05-10T21:21:43.642Z,16.57
2023-05-10T21:24:13.622Z,16.45
2023-05-10T21:26:44.406Z,16.31
2023-05-10T21:29:14.338Z,16.14
2023-05-10T21:31:44.701Z,16.17
2023-05-10T21:34:15.329Z,16.07
2023-05-10T21:36:45.818Z,15.99
2023-05-10T21:39:15.746Z,15.89
2023-05-10T21:41:46.026Z,15.82
2023-05-10T21:44:15.803Z,15.76
2023-05-10T21:46:46.503Z,15.74
2023-05-10T21:49:16.569Z,15.53
2023-05-10T21:51:50.496Z,15.52
2023-05-10T21:54:20.561Z,15.59
2023-05-10T21:56:50.874Z,15.47
2023-05-10T21:59:22.498Z,15.58
2023-05-10T22:01:52.821Z,15.60
2023-05-10T22:04:22.840Z,15.56
2023-05-10T22:06:53.182Z,15.61
2023-05-10T22:09:25.467Z,15.56
2023-05-10T22:11:55.858Z,15.60
2023-05-10T22:14:25.810Z,15.56
2023-05-10T22:16:56.166Z,15.58
2023-05-10T22:19:25.901Z,15.56
2023-05-10T22:21:56.624Z,15.48
2023-05-10T22:24:26.570Z,15.55
2023-05-10T22:26:59.099Z,15.56
2023-05-10T22:29:29.326Z,15.57
2023-05-10T22:31:59.943Z,15.47
2023-05-10T22:34:30.071Z,15.48
2023-05-10T22:37:02.960Z,15.53
2023-05-10T22:39:32.902Z,15.55
2023-05-10T22:42:03.209Z,15.52
2023-05-10T22:44:32.965Z,15.56
2023-05-10T22:47:03.471Z,15.55
2023-05-10T22:49:36.614Z,15.49
2023-05-10T22:52:07.042Z,15.54
2023-05-10T22:54:37.028Z,15.63
2023-05-10T22:57:07.595Z,15.52
2023-05-10T22:59:37.735Z,15.53
2023-05-10T23:02:08.414Z,15.46
2023-05-10T23:04:38.406Z,15.42
2023-05-10T23:07:08.510Z,15.37
2023-05-10T23:09:38.844Z,15.45
2023-05-10T23:12:08.812Z,15.39
2023-05-10T23:14:39.321Z,15.41
2023-05-10T23:17:09.797Z,15.48
2023-05-10T23:19:40.196Z,15.48
2023-05-10T23:22:11.096Z,15.35
2023-05-10T23:24:42.036Z,15.45
2023-05-10T23:27:12.520Z,15.48
2023-05-10T23:29:43.354Z,15.34
2023-05-10T23:32:13.371Z,15.52
2023-05-10T23:34:43.888Z,15.53
2023-05-10T23:37:13.885Z,15.47
2023-05-10T23:39:44.867Z,15.48
2023-05-10T23:42:14.904Z,15.38
2023-05-10T23:44:45.298Z,15.26
2023-05-10T23:47:15.276Z,15.12
2023-05-10T23:49:46.332Z,14.96
2023-05-10T23:52:16.283Z,14.87
2023-05-10T23:54:46.952Z,14.76
2023-05-10T23:57:17.163Z,14.70
2023-05-10T23:59:50.048Z,14.67
